createdAt,value
2023-03-01T14:06:15.921Z,16.24
2023-03-01T14:08:58.976Z,16.23
2023-03-01T14:12:09.755Z,16.19
2023-03-01T14:14:57.772Z,17.84
2023-03-01T14:18:14.638Z,17.28
2023-03-01T14:20:54.478Z,19.10
2023-03-01T14:23:36.416Z,15.81
2023-03-01T14:26:18.052Z,14.90
2023-03-01T14:29:02.182Z,14.75
2023-03-01T14:31:52.970Z,14.54
2023-03-01T14:34:33.130Z,14.12
2023-03-01T14:37:28.435Z,14.03
2023-03-01T14:40:09.420Z,13.91
2023-03-01T14:42:48.666Z,13.97
2023-03-01T14:45:35.318Z,13.78
2023-03-01T14:48:15.925Z,13.91
2023-03-01T14:50:55.557Z,13.78
2023-03-01T14:53:50.316Z,13.64
2023-03-01T14:56:29.945Z,13.72
2023-03-01T14:59:10.060Z,13.83
2023-03-01T15:01:55.078Z,13.57
2023-03-01T15:04:37.011Z,13.30
2023-03-01T15:07:21.729Z,13.33
2023-03-01T15:10:01.105Z,13.41
2023-03-01T15:12:45.903Z,13.29
2023-03-01T15:15:31.949Z,13.37
2023-03-01T15:18:25.731Z,13.38
2023-03-01T15:21:14.693Z,13.35
2023-03-01T15:23:58.497Z,13.34
2023-03-01T15:26:40.884Z,13.49
2023-03-01T15:29:28.945Z,13.38
2023-03-01T15:32:11.884Z,13.25
2023-03-01T15:34:56.028Z,13.20
2023-03-01T15:37:49.652Z,13.49
2023-03-01T15:40:33.352Z,14.00
2023-03-01T15:43:14.658Z,14.15
2023-03-01T15:46:04.827Z,14.46
2023-03-01T15:48:43.904Z,14.32
2023-03-01T15:51:36.251Z,14.34
2023-03-01T15:54:27.002Z,14.43
2023-03-01T15:57:05.878Z,14.73
2023-03-01T15:59:46.419Z,14.93
2023-03-01T16:02:25.464Z,15.52
2023-03-01T16:05:04.443Z,15.41
2023-03-01T16:07:48.425Z,15.96
2023-03-01T16:10:28.034Z,16.02
2023-03-01T16:13:07.060Z,16.02
2023-03-01T16:15:46.923Z,16.21
2023-03-01T16:18:25.719Z,16.23
2023-03-01T16:21:04.609Z,16.52
2023-03-01T16:23:48.470Z,17.07
2023-03-01T16:26:27.397Z,17.65
2023-03-01T16:29:06.736Z,18.10
2023-03-01T16:31:45.919Z,18.49
2023-03-01T16:34:25.461Z,19.31
2023-03-01T16:37:04.291Z,21.04
2023-03-01T16:39:48.189Z,21.44
2023-03-01T16:42:27.036Z,22.55
2023-03-01T16:45:13.983Z,24.52
2023-03-01T16:48:01.908Z,25.82
2023-03-01T16:50:40.734Z,26.63
2023-03-01T16:53:19.580Z,27.32
2023-03-01T16:56:07.063Z,28.02
2023-03-01T16:58:47.670Z,28.45
2023-03-01T17:01:36.945Z,28.87
2023-03-01T17:04:20.328Z,29.31
2023-03-01T17:06:59.216Z,29.80
2023-03-01T17:09:38.079Z,30.09
2023-03-01T17:12:22.935Z,30.70
2023-03-01T17:15:02.248Z,30.93
2023-03-01T17:17:41.703Z,31.31
2023-03-01T17:20:21.085Z,31.49
2023-03-01T17:23:00.608Z,31.74
2023-03-01T17:25:39.475Z,31.83
2023-03-01T17:28:23.361Z,32.05
2023-03-01T17:31:02.641Z,32.55
2023-03-01T17:33:42.019Z,32.86
2023-03-01T17:36:21.166Z,33.05
2023-03-01T17:39:00.024Z,33.48
2023-03-01T17:41:39.181Z,33.82
2023-03-01T17:44:23.056Z,33.82
2023-03-01T17:47:01.885Z,33.84
2023-03-01T17:49:41.125Z,33.96
2023-03-01T17:52:24.819Z,34.13
2023-03-01T17:55:03.787Z,34.43
2023-03-01T17:57:46.100Z,34.68
2023-03-01T18:00:31.021Z,34.95
2023-03-01T18:03:10.832Z,35.13
2023-03-01T18:05:50.001Z,35.56
2023-03-01T18:08:28.808Z,35.79
2023-03-01T18:11:09.041Z,35.97
2023-03-01T18:13:48.645Z,36.04
2023-03-01T18:16:33.021Z,36.04
2023-03-01T18:19:12.265Z,36.51
2023-03-01T18:21:51.070Z,36.57
2023-03-01T18:24:30.068Z,36.78
2023-03-01T18:27:08.984Z,37.05
2023-03-01T18:29:47.895Z,37.32
2023-03-01T18:32:32.771Z,37.58
2023-03-01T18:35:12.756Z,37.81
2023-03-01T18:37:51.588Z,37.95
2023-03-01T18:40:30.433Z,38.09
2023-03-01T18:43:09.216Z,38.33
2023-03-01T18:45:49.874Z,38.56
2023-03-01T18:48:33.991Z,39.06
2023-03-01T18:51:18.132Z,39.26
2023-03-01T18:53:56.996Z,39.48
2023-03-01T18:56:37.665Z,39.45
2023-03-01T18:59:16.463Z,39.48
2023-03-01T19:01:55.338Z,39.55
2023-03-01T19:04:39.262Z,39.69
2023-03-01T19:07:18.117Z,39.75
2023-03-01T19:09:57.113Z,39.89
2023-03-01T19:12:36.089Z,39.90
2023-03-01T19:15:17.195Z,39.97
2023-03-01T19:17:56.054Z,40.35
2023-03-01T19:20:40.561Z,40.47
2023-03-01T19:23:19.720Z,40.63
2023-03-01T19:25:58.577Z,40.64
2023-03-01T19:28:39.582Z,40.69
2023-03-01T19:31:21.081Z,40.74
2023-03-01T19:34:16.382Z,40.85
2023-03-01T19:37:00.323Z,41.14
2023-03-01T19:39:39.136Z,41.27
2023-03-01T19:42:18.051Z,41.35
2023-03-01T19:44:56.888Z,41.28
2023-03-01T19:47:35.677Z,41.32
2023-03-01T19:50:15.546Z,41.29
2023-03-01T19:52:59.518Z,41.27
2023-03-01T19:55:38.391Z,41.26
2023-03-01T19:58:18.204Z,41.52
2023-03-01T20:00:59.665Z,41.71
2023-03-01T20:03:40.744Z,41.67
2023-03-01T20:06:22.657Z,41.89
2023-03-01T20:09:20.367Z,41.97
2023-03-01T20:11:59.683Z,41.68
2023-03-01T20:17:21.977Z,41.96
2023-03-01T20:20:00.820Z,41.99
2023-03-01T20:22:39.658Z,42.14
2023-03-01T20:25:23.702Z,41.81
2023-03-01T20:28:02.635Z,42.02
2023-03-01T20:30:41.452Z,42.20
2023-03-01T20:33:20.321Z,42.33
2023-03-01T20:35:59.160Z,42.34
2023-03-01T20:38:38.151Z,42.52
2023-03-01T20:41:22.015Z,42.41
2023-03-01T20:44:01.332Z,42.42
2023-03-01T20:46:40.924Z,42.51
2023-03-01T20:49:19.772Z,42.60
2023-03-01T20:51:58.762Z,42.51
2023-03-01T20:54:37.710Z,42.64
2023-03-01T20:57:21.790Z,42.89
2023-03-01T21:00:00.806Z,43.05
2023-03-01T21:02:44.299Z,43.34
2023-03-01T21:05:23.765Z,43.20
2023-03-01T21:08:03.850Z,43.30
2023-03-01T21:10:42.657Z,43.23
2023-03-01T21:16:14.761Z,43.54
2023-03-01T21:18:54.301Z,43.26
2023-03-01T21:21:33.126Z,43.39
2023-03-01T21:24:12.942Z,43.51
2023-03-01T21:26:51.775Z,43.47
2023-03-01T21:29:35.658Z,43.56
2023-03-01T21:32:16.421Z,43.59
2023-03-01T21:34:55.453Z,43.87
2023-03-01T21:37:34.480Z,43.94
2023-03-01T21:40:15.030Z,43.85
2023-03-01T21:42:53.857Z,43.84
2023-03-01T21:45:37.787Z,44.11
2023-03-01T21:48:16.665Z,44.14
2023-03-01T21:51:02.099Z,44.15
2023-03-01T21:53:42.501Z,44.18
2023-03-01T21:56:23.766Z,44.36
2023-03-01T21:59:04.588Z,44.40
2023-03-01T22:01:48.582Z,44.40
2023-03-01T22:04:27.433Z,44.45
2023-03-01T22:07:06.278Z,44.63
2023-03-01T22:09:45.941Z,44.56
2023-03-01T22:12:24.758Z,44.65
2023-03-01T22:15:03.822Z,45.00
2023-03-01T22:17:47.699Z,44.97
2023-03-01T22:20:27.436Z,44.95
2023-03-01T22:23:06.224Z,45.00
2023-03-01T22:25:48.900Z,45.14
2023-03-01T22:28:27.739Z,45.23
2023-03-01T22:31:10.809Z,45.35
2023-03-01T22:33:55.300Z,45.23
2023-03-01T22:36:35.210Z,45.26
2023-03-01T22:39:14.580Z,45.50
2023-03-01T22:41:55.669Z,45.60
2023-03-01T22:44:34.648Z,45.76
2023-03-01T22:47:13.635Z,46.05
2023-03-01T22:49:57.591Z,45.98
2023-03-01T22:52:36.917Z,45.86
2023-03-01T22:55:16.760Z,45.93
2023-03-01T22:57:57.516Z,46.11
2023-03-01T23:00:36.533Z,46.32
2023-03-01T23:03:15.465Z,46.33
2023-03-01T23:05:59.461Z,46.44
2023-03-01T23:08:38.682Z,46.73
2023-03-01T23:11:20.184Z,46.57
2023-03-01T23:14:00.633Z,46.60
2023-03-01T23:16:39.456Z,46.63
2023-03-01T23:19:18.405Z,46.72
2023-03-01T23:22:02.301Z,46.80
2023-03-01T23:24:41.191Z,46.77
2023-03-01T23:27:20.133Z,46.89
2023-03-01T23:29:59.508Z,46.97
2023-03-01T23:32:41.629Z,47.09
2023-03-01T23:35:20.482Z,47.03
2023-03-01T23:38:04.385Z,47.05
2023-03-01T23:40:45.483Z,47.24
2023-03-01T23:43:24.265Z,47.30
2023-03-01T23:46:03.103Z,47.04
2023-03-01T23:48:41.918Z,47.28
2023-03-01T23:51:21.957Z,47.39
2023-03-01T23:54:08.895Z,47.57
2023-03-01T23:56:50.200Z,47.49
2023-03-01T23:59:30.612Z,47.50
